sensor_id;sensor_type;location;lat;lon;timestamp;P1;durP1;ratioP1;P2;durP2;ratioP2
16181;SDS011;8197;51.664;7.114;2024-03-06T00:03:43;54.27;;;22.83;;
16181;SDS011;8197;51.664;7.114;2024-03-06T00:08:46;61.53;;;25.17;;
16181;SDS011;8197;51.664;7.114;2024-03-06T00:13:50;51.50;;;25.00;;
16181;SDS011;8197;51.664;7.114;2024-03-06T00:18:53;57.87;;;26.17;;
16181;SDS011;8197;51.664;7.114;2024-03-06T00:23:56;56.07;;;25.17;;
16181;SDS011;8197;51.664;7.114;2024-03-06T00:29:00;67.23;;;27.37;;
16181;SDS011;8197;51.664;7.114;2024-03-06T00:34:03;61.20;;;26.23;;
16181;SDS011;8197;51.664;7.114;2024-03-06T00:39:07;58.03;;;27.63;;
16181;SDS011;8197;51.664;7.114;2024-03-06T00:44:11;62.53;;;25.97;;
16181;SDS011;8197;51.664;7.114;2024-03-06T00:49:14;55.93;;;23.80;;
16181;SDS011;8197;51.664;7.114;2024-03-06T00:54:17;67.20;;;27.27;;
16181;SDS011;8197;51.664;7.114;2024-03-06T00:59:21;51.77;;;24.47;;
16181;SDS011;8197;51.664;7.114;2024-03-06T01:04:27;59.17;;;24.17;;
16181;SDS011;8197;51.664;7.114;2024-03-06T01:09:33;58.70;;;25.80;;
16181;SDS011;8197;51.664;7.114;2024-03-06T01:14:37;54.03;;;23.93;;
16181;SDS011;8197;51.664;7.114;2024-03-06T01:19:41;52.90;;;24.60;;
16181;SDS011;8197;51.664;7.114;2024-03-06T01:24:44;51.93;;;24.60;;
16181;SDS011;8197;51.664;7.114;2024-03-06T01:29:51;56.73;;;24.20;;
16181;SDS011;8197;51.664;7.114;2024-03-06T01:34:54;58.50;;;24.10;;
16181;SDS011;8197;51.664;7.114;2024-03-06T01:39:57;54.87;;;23.93;;
16181;SDS011;8197;51.664;7.114;2024-03-06T01:45:02;51.40;;;22.87;;
16181;SDS011;8197;51.664;7.114;2024-03-06T01:50:06;56.10;;;22.80;;
16181;SDS011;8197;51.664;7.114;2024-03-06T01:55:11;52.00;;;22.00;;
16181;SDS011;8197;51.664;7.114;2024-03-06T02:00:17;52.33;;;22.17;;
16181;SDS011;8197;51.664;7.114;2024-03-06T02:05:22;56.00;;;25.17;;
16181;SDS011;8197;51.664;7.114;2024-03-06T02:10:25;51.57;;;24.07;;
16181;SDS011;8197;51.664;7.114;2024-03-06T02:15:30;52.67;;;24.37;;
16181;SDS011;8197;51.664;7.114;2024-03-06T02:20:34;56.40;;;22.50;;
16181;SDS011;8197;51.664;7.114;2024-03-06T02:25:37;55.70;;;26.70;;
16181;SDS011;8197;51.664;7.114;2024-03-06T02:30:40;51.60;;;22.87;;
16181;SDS011;8197;51.664;7.114;2024-03-06T02:35:44;54.80;;;25.50;;
16181;SDS011;8197;51.664;7.114;2024-03-06T02:40:47;51.93;;;24.47;;
16181;SDS011;8197;51.664;7.114;2024-03-06T02:45:50;56.90;;;24.23;;
16181;SDS011;8197;51.664;7.114;2024-03-06T02:50:55;49.77;;;22.93;;
16181;SDS011;8197;51.664;7.114;2024-03-06T02:55:58;50.67;;;23.77;;
16181;SDS011;8197;51.664;7.114;2024-03-06T03:01:01;49.07;;;23.30;;
16181;SDS011;8197;51.664;7.114;2024-03-06T03:06:06;49.70;;;22.03;;
16181;SDS011;8197;51.664;7.114;2024-03-06T03:11:09;50.13;;;22.13;;
16181;SDS011;8197;51.664;7.114;2024-03-06T03:16:15;48.53;;;21.83;;
16181;SDS011;8197;51.664;7.114;2024-03-06T03:21:23;50.23;;;21.13;;
16181;SDS011;8197;51.664;7.114;2024-03-06T03:26:26;51.70;;;21.83;;
16181;SDS011;8197;51.664;7.114;2024-03-06T03:31:29;54.23;;;25.50;;
16181;SDS011;8197;51.664;7.114;2024-03-06T03:36:39;47.27;;;22.60;;
16181;SDS011;8197;51.664;7.114;2024-03-06T03:41:43;52.23;;;23.20;;
16181;SDS011;8197;51.664;7.114;2024-03-06T03:46:47;47.80;;;22.37;;
16181;SDS011;8197;51.664;7.114;2024-03-06T03:51:51;48.23;;;21.57;;
16181;SDS011;8197;51.664;7.114;2024-03-06T03:56:54;45.73;;;20.80;;
16181;SDS011;8197;51.664;7.114;2024-03-06T04:01:57;49.40;;;22.60;;
16181;SDS011;8197;51.664;7.114;2024-03-06T04:07:01;43.90;;;20.73;;
16181;SDS011;8197;51.664;7.114;2024-03-06T04:12:04;45.67;;;20.13;;
16181;SDS011;8197;51.664;7.114;2024-03-06T04:17:07;47.90;;;21.27;;
16181;SDS011;8197;51.664;7.114;2024-03-06T04:22:12;43.50;;;20.17;;
16181;SDS011;8197;51.664;7.114;2024-03-06T04:27:15;88.20;;;21.47;;
16181;SDS011;8197;51.664;7.114;2024-03-06T04:32:18;73.53;;;20.70;;
16181;SDS011;8197;51.664;7.114;2024-03-06T04:37:22;146.43;;;19.63;;
16181;SDS011;8197;51.664;7.114;2024-03-06T04:42:27;108.30;;;20.80;;
16181;SDS011;8197;51.664;7.114;2024-03-06T04:47:30;110.20;;;20.00;;
16181;SDS011;8197;51.664;7.114;2024-03-06T04:52:36;88.70;;;20.90;;
16181;SDS011;8197;51.664;7.114;2024-03-06T04:57:39;85.37;;;19.77;;
16181;SDS011;8197;51.664;7.114;2024-03-06T05:02:42;95.43;;;20.37;;
16181;SDS011;8197;51.664;7.114;2024-03-06T05:08:05;86.00;;;20.37;;
16181;SDS011;8197;51.664;7.114;2024-03-06T05:13:26;71.70;;;19.70;;
16181;SDS011;8197;51.664;7.114;2024-03-06T05:18:49;46.20;;;18.67;;
16181;SDS011;8197;51.664;7.114;2024-03-06T05:24:11;44.53;;;17.80;;
16181;SDS011;8197;51.664;7.114;2024-03-06T05:29:31;36.30;;;18.87;;
16181;SDS011;8197;51.664;7.114;2024-03-06T05:34:52;33.10;;;16.13;;
16181;SDS011;8197;51.664;7.114;2024-03-06T05:40:14;41.67;;;18.90;;
16181;SDS011;8197;51.664;7.114;2024-03-06T05:45:36;45.50;;;17.77;;
16181;SDS011;8197;51.664;7.114;2024-03-06T05:50:56;39.30;;;17.33;;
16181;SDS011;8197;51.664;7.114;2024-03-06T05:56:19;44.77;;;19.00;;
16181;SDS011;8197;51.664;7.114;2024-03-06T06:01:39;74.90;;;35.13;;
16181;SDS011;8197;51.664;7.114;2024-03-06T06:06:42;59.97;;;25.13;;
16181;SDS011;8197;51.664;7.114;2024-03-06T06:11:47;100.67;;;48.80;;
16181;SDS011;8197;51.664;7.114;2024-03-06T06:16:52;84.30;;;25.30;;
16181;SDS011;8197;51.664;7.114;2024-03-06T06:21:55;60.23;;;26.80;;
16181;SDS011;8197;51.664;7.114;2024-03-06T06:26:59;61.97;;;19.87;;
16181;SDS011;8197;51.664;7.114;2024-03-06T06:32:02;52.33;;;21.63;;
16181;SDS011;8197;51.664;7.114;2024-03-06T06:37:05;51.43;;;19.53;;
16181;SDS011;8197;51.664;7.114;2024-03-06T06:42:09;46.37;;;18.37;;
16181;SDS011;8197;51.664;7.114;2024-03-06T06:47:12;49.73;;;21.50;;
16181;SDS011;8197;51.664;7.114;2024-03-06T06:52:15;97.53;;;24.03;;
16181;SDS011;8197;51.664;7.114;2024-03-06T06:57:20;95.90;;;25.63;;
16181;SDS011;8197;51.664;7.114;2024-03-06T07:02:23;110.23;;;25.47;;
16181;SDS011;8197;51.664;7.114;2024-03-06T07:07:26;52.77;;;20.90;;
16181;SDS011;8197;51.664;7.114;2024-03-06T07:12:30;52.27;;;20.50;;
16181;SDS011;8197;51.664;7.114;2024-03-06T07:17:34;71.63;;;22.73;;
16181;SDS011;8197;51.664;7.114;2024-03-06T07:22:37;57.93;;;20.60;;
16181;SDS011;8197;51.664;7.114;2024-03-06T07:27:41;72.27;;;22.07;;
16181;SDS011;8197;51.664;7.114;2024-03-06T07:32:44;49.13;;;21.20;;
16181;SDS011;8197;51.664;7.114;2024-03-06T07:37:47;46.73;;;20.80;;
16181;SDS011;8197;51.664;7.114;2024-03-06T07:42:51;46.67;;;19.93;;
16181;SDS011;8197;51.664;7.114;2024-03-06T07:47:54;52.03;;;22.40;;
16181;SDS011;8197;51.664;7.114;2024-03-06T07:52:57;47.43;;;19.80;;
16181;SDS011;8197;51.664;7.114;2024-03-06T07:58:01;47.87;;;22.40;;
16181;SDS011;8197;51.664;7.114;2024-03-06T08:03:04;60.80;;;23.27;;
16181;SDS011;8197;51.664;7.114;2024-03-06T08:08:07;52.20;;;22.87;;
16181;SDS011;8197;51.664;7.114;2024-03-06T08:13:11;54.43;;;23.03;;
16181;SDS011;8197;51.664;7.114;2024-03-06T08:18:14;55.13;;;25.83;;
16181;SDS011;8197;51.664;7.114;2024-03-06T08:23:17;68.30;;;27.97;;
16181;SDS011;8197;51.664;7.114;2024-03-06T08:28:22;63.67;;;26.60;;
16181;SDS011;8197;51.664;7.114;2024-03-06T08:33:25;62.47;;;28.00;;
16181;SDS011;8197;51.664;7.114;2024-03-06T08:38:28;62.27;;;29.10;;
16181;SDS011;8197;51.664;7.114;2024-03-06T08:43:32;70.80;;;31.70;;
16181;SDS011;8197;51.664;7.114;2024-03-06T08:48:36;70.80;;;31.10;;
16181;SDS011;8197;51.664;7.114;2024-03-06T08:53:40;66.27;;;27.73;;
16181;SDS011;8197;51.664;7.114;2024-03-06T08:58:44;67.17;;;29.47;;
16181;SDS011;8197;51.664;7.114;2024-03-06T09:03:47;73.37;;;33.03;;
16181;SDS011;8197;51.664;7.114;2024-03-06T09:08:50;69.77;;;29.00;;
16181;SDS011;8197;51.664;7.114;2024-03-06T09:13:54;77.57;;;33.00;;
16181;SDS011;8197;51.664;7.114;2024-03-06T09:18:57;75.03;;;31.37;;
16181;SDS011;8197;51.664;7.114;2024-03-06T09:24:00;70.73;;;30.30;;
16181;SDS011;8197;51.664;7.114;2024-03-06T09:29:04;70.43;;;30.63;;
16181;SDS011;8197;51.664;7.114;2024-03-06T09:34:07;62.73;;;30.30;;
16181;SDS011;8197;51.664;7.114;2024-03-06T09:39:12;65.90;;;29.17;;
16181;SDS011;8197;51.664;7.114;2024-03-06T09:44:19;70.43;;;29.43;;
16181;SDS011;8197;51.664;7.114;2024-03-06T09:49:22;68.60;;;30.40;;
16181;SDS011;8197;51.664;7.114;2024-03-06T09:54:26;64.37;;;27.27;;
16181;SDS011;8197;51.664;7.114;2024-03-06T09:59:30;66.20;;;29.50;;
16181;SDS011;8197;51.664;7.114;2024-03-06T10:04:33;61.10;;;26.37;;
16181;SDS011;8197;51.664;7.114;2024-03-06T10:09:39;68.73;;;26.23;;
16181;SDS011;8197;51.664;7.114;2024-03-06T10:14:49;65.57;;;31.70;;
16181;SDS011;8197;51.664;7.114;2024-03-06T10:19:53;79.43;;;31.70;;
16181;SDS011;8197;51.664;7.114;2024-03-06T10:24:56;83.40;;;37.97;;
16181;SDS011;8197;51.664;7.114;2024-03-06T10:30:04;81.30;;;35.67;;
16181;SDS011;8197;51.664;7.114;2024-03-06T10:35:18;72.47;;;33.70;;
16181;SDS011;8197;51.664;7.114;2024-03-06T10:40:22;77.63;;;35.20;;
16181;SDS011;8197;51.664;7.114;2024-03-06T10:45:28;85.63;;;38.20;;
16181;SDS011;8197;51.664;7.114;2024-03-06T10:50:42;86.77;;;42.30;;
16181;SDS011;8197;51.664;7.114;2024-03-06T10:55:46;75.80;;;36.43;;
16181;SDS011;8197;51.664;7.114;2024-03-06T11:00:52;88.90;;;38.40;;
16181;SDS011;8197;51.664;7.114;2024-03-06T11:05:59;80.33;;;33.03;;
16181;SDS011;8197;51.664;7.114;2024-03-06T11:11:21;76.80;;;33.30;;
16181;SDS011;8197;51.664;7.114;2024-03-06T11:16:30;77.13;;;34.40;;
16181;SDS011;8197;51.664;7.114;2024-03-06T11:21:36;78.90;;;37.07;;
16181;SDS011;8197;51.664;7.114;2024-03-06T11:26:49;73.07;;;33.13;;
16181;SDS011;8197;51.664;7.114;2024-03-06T11:31:59;83.03;;;34.47;;
16181;SDS011;8197;51.664;7.114;2024-03-06T11:37:08;63.53;;;26.73;;
16181;SDS011;8197;51.664;7.114;2024-03-06T11:42:11;76.63;;;31.87;;
16181;SDS011;8197;51.664;7.114;2024-03-06T11:47:17;74.70;;;32.77;;
16181;SDS011;8197;51.664;7.114;2024-03-06T11:52:20;82.27;;;35.70;;
16181;SDS011;8197;51.664;7.114;2024-03-06T11:57:24;90.63;;;37.73;;
16181;SDS011;8197;51.664;7.114;2024-03-06T12:02:28;90.00;;;41.67;;
16181;SDS011;8197;51.664;7.114;2024-03-06T12:07:31;94.97;;;41.57;;
16181;SDS011;8197;51.664;7.114;2024-03-06T12:12:35;93.17;;;43.50;;
16181;SDS011;8197;51.664;7.114;2024-03-06T12:17:43;98.60;;;42.60;;
16181;SDS011;8197;51.664;7.114;2024-03-06T12:22:48;89.97;;;40.70;;
16181;SDS011;8197;51.664;7.114;2024-03-06T12:27:53;91.13;;;41.50;;
16181;SDS011;8197;51.664;7.114;2024-03-06T12:32:58;92.27;;;42.20;;
16181;SDS011;8197;51.664;7.114;2024-03-06T12:38:11;92.50;;;39.80;;
16181;SDS011;8197;51.664;7.114;2024-03-06T12:43:15;80.27;;;38.83;;
16181;SDS011;8197;51.664;7.114;2024-03-06T12:48:19;80.90;;;37.80;;
16181;SDS011;8197;51.664;7.114;2024-03-06T12:53:23;75.33;;;37.20;;
16181;SDS011;8197;51.664;7.114;2024-03-06T12:58:26;61.23;;;30.50;;
16181;SDS011;8197;51.664;7.114;2024-03-06T13:03:30;63.43;;;32.17;;
16181;SDS011;8197;51.664;7.114;2024-03-06T13:08:33;65.43;;;32.23;;
16181;SDS011;8197;51.664;7.114;2024-03-06T13:13:37;68.87;;;32.43;;
16181;SDS011;8197;51.664;7.114;2024-03-06T13:18:41;58.23;;;29.07;;
16181;SDS011;8197;51.664;7.114;2024-03-06T13:23:44;60.60;;;28.07;;
16181;SDS011;8197;51.664;7.114;2024-03-06T13:28:47;62.90;;;30.00;;
16181;SDS011;8197;51.664;7.114;2024-03-06T13:33:52;56.77;;;26.70;;
16181;SDS011;8197;51.664;7.114;2024-03-06T13:38:55;57.50;;;28.27;;
16181;SDS011;8197;51.664;7.114;2024-03-06T13:43:58;56.67;;;25.60;;
16181;SDS011;8197;51.664;7.114;2024-03-06T13:49:03;46.40;;;21.30;;
16181;SDS011;8197;51.664;7.114;2024-03-06T13:54:06;51.83;;;22.90;;
16181;SDS011;8197;51.664;7.114;2024-03-06T13:59:09;49.80;;;23.00;;
16181;SDS011;8197;51.664;7.114;2024-03-06T14:04:13;40.77;;;19.60;;
16181;SDS011;8197;51.664;7.114;2024-03-06T14:09:16;39.40;;;18.07;;
16181;SDS011;8197;51.664;7.114;2024-03-06T14:14:19;39.00;;;16.83;;
16181;SDS011;8197;51.664;7.114;2024-03-06T14:19:25;34.07;;;15.07;;
16181;SDS011;8197;51.664;7.114;2024-03-06T14:24:28;34.00;;;13.43;;
16181;SDS011;8197;51.664;7.114;2024-03-06T14:29:31;30.43;;;12.27;;
16181;SDS011;8197;51.664;7.114;2024-03-06T14:34:36;27.57;;;9.70;;
16181;SDS011;8197;51.664;7.114;2024-03-06T14:39:39;27.43;;;9.33;;
16181;SDS011;8197;51.664;7.114;2024-03-06T14:44:42;26.33;;;10.33;;
16181;SDS011;8197;51.664;7.114;2024-03-06T14:49:47;28.63;;;11.20;;
16181;SDS011;8197;51.664;7.114;2024-03-06T14:54:50;48.20;;;19.97;;
16181;SDS011;8197;51.664;7.114;2024-03-06T14:59:53;57.33;;;23.13;;
16181;SDS011;8197;51.664;7.114;2024-03-06T15:05:00;39.87;;;14.47;;
16181;SDS011;8197;51.664;7.114;2024-03-06T15:10:04;52.67;;;21.20;;
16181;SDS011;8197;51.664;7.114;2024-03-06T15:15:08;47.67;;;19.70;;
16181;SDS011;8197;51.664;7.114;2024-03-06T15:20:13;49.37;;;23.77;;
16181;SDS011;8197;51.664;7.114;2024-03-06T15:25:17;53.63;;;23.87;;
16181;SDS011;8197;51.664;7.114;2024-03-06T15:30:20;53.13;;;24.70;;
16181;SDS011;8197;51.664;7.114;2024-03-06T15:35:24;51.33;;;22.93;;
16181;SDS011;8197;51.664;7.114;2024-03-06T15:40:30;48.30;;;21.03;;
16181;SDS011;8197;51.664;7.114;2024-03-06T15:45:33;48.50;;;21.20;;
16181;SDS011;8197;51.664;7.114;2024-03-06T15:50:38;47.20;;;22.37;;
16181;SDS011;8197;51.664;7.114;2024-03-06T15:55:41;57.87;;;23.33;;
16181;SDS011;8197;51.664;7.114;2024-03-06T16:00:45;43.30;;;21.37;;
16181;SDS011;8197;51.664;7.114;2024-03-06T16:05:51;56.77;;;21.13;;
16181;SDS011;8197;51.664;7.114;2024-03-06T16:11:10;49.23;;;21.30;;
16181;SDS011;8197;51.664;7.114;2024-03-06T16:16:13;54.47;;;23.00;;
16181;SDS011;8197;51.664;7.114;2024-03-06T16:21:18;49.43;;;19.70;;
16181;SDS011;8197;51.664;7.114;2024-03-06T16:26:22;54.20;;;24.20;;
16181;SDS011;8197;51.664;7.114;2024-03-06T16:31:29;69.27;;;24.60;;
16181;SDS011;8197;51.664;7.114;2024-03-06T16:36:34;57.27;;;23.10;;
16181;SDS011;8197;51.664;7.114;2024-03-06T16:41:36;54.50;;;18.97;;
16181;SDS011;8197;51.664;7.114;2024-03-06T16:46:43;35.13;;;11.23;;
16181;SDS011;8197;51.664;7.114;2024-03-06T16:51:47;54.03;;;23.73;;
16181;SDS011;8197;51.664;7.114;2024-03-06T16:56:50;58.30;;;26.10;;
16181;SDS011;8197;51.664;7.114;2024-03-06T17:01:53;56.40;;;24.00;;
16181;SDS011;8197;51.664;7.114;2024-03-06T17:07:00;51.97;;;21.90;;
16181;SDS011;8197;51.664;7.114;2024-03-06T17:12:10;62.10;;;27.20;;
16181;SDS011;8197;51.664;7.114;2024-03-06T17:17:13;47.20;;;18.07;;
16181;SDS011;8197;51.664;7.114;2024-03-06T17:22:17;59.70;;;24.77;;
16181;SDS011;8197;51.664;7.114;2024-03-06T17:27:21;59.90;;;26.10;;
16181;SDS011;8197;51.664;7.114;2024-03-06T17:32:24;54.47;;;22.20;;
16181;SDS011;8197;51.664;7.114;2024-03-06T17:37:29;53.10;;;23.20;;
16181;SDS011;8197;51.664;7.114;2024-03-06T17:42:32;56.77;;;24.57;;
16181;SDS011;8197;51.664;7.114;2024-03-06T17:47:34;59.60;;;23.60;;
16181;SDS011;8197;51.664;7.114;2024-03-06T17:52:39;49.13;;;21.13;;
16181;SDS011;8197;51.664;7.114;2024-03-06T17:57:42;39.87;;;13.73;;
16181;SDS011;8197;51.664;7.114;2024-03-06T18:02:47;52.97;;;22.77;;
16181;SDS011;8197;51.664;7.114;2024-03-06T18:07:53;53.67;;;23.47;;
16181;SDS011;8197;51.664;7.114;2024-03-06T18:12:57;51.53;;;21.63;;
16181;SDS011;8197;51.664;7.114;2024-03-06T18:18:00;65.87;;;26.10;;
16181;SDS011;8197;51.664;7.114;2024-03-06T18:23:05;62.67;;;25.67;;
16181;SDS011;8197;51.664;7.114;2024-03-06T18:28:08;60.40;;;24.53;;
16181;SDS011;8197;51.664;7.114;2024-03-06T18:33:11;66.97;;;25.77;;
16181;SDS011;8197;51.664;7.114;2024-03-06T18:38:16;63.87;;;26.73;;
16181;SDS011;8197;51.664;7.114;2024-03-06T18:43:19;62.80;;;26.30;;
16181;SDS011;8197;51.664;7.114;2024-03-06T18:48:22;71.53;;;25.90;;
16181;SDS011;8197;51.664;7.114;2024-03-06T18:53:26;66.10;;;27.90;;
16181;SDS011;8197;51.664;7.114;2024-03-06T18:58:30;65.93;;;27.13;;
16181;SDS011;8197;51.664;7.114;2024-03-06T19:03:33;62.30;;;26.37;;
16181;SDS011;8197;51.664;7.114;2024-03-06T19:08:38;64.47;;;25.67;;
16181;SDS011;8197;51.664;7.114;2024-03-06T19:14:10;64.93;;;27.17;;
16181;SDS011;8197;51.664;7.114;2024-03-06T19:19:13;69.43;;;28.13;;
16181;SDS011;8197;51.664;7.114;2024-03-06T19:24:17;62.00;;;26.10;;
16181;SDS011;8197;51.664;7.114;2024-03-06T19:29:21;62.73;;;25.50;;
16181;SDS011;8197;51.664;7.114;2024-03-06T19:34:24;74.60;;;27.57;;
16181;SDS011;8197;51.664;7.114;2024-03-06T19:39:29;76.70;;;32.07;;
16181;SDS011;8197;51.664;7.114;2024-03-06T19:44:32;67.13;;;27.70;;
16181;SDS011;8197;51.664;7.114;2024-03-06T19:49:35;72.53;;;30.70;;
16181;SDS011;8197;51.664;7.114;2024-03-06T19:54:41;70.37;;;30.73;;
16181;SDS011;8197;51.664;7.114;2024-03-06T19:59:44;75.07;;;30.70;;
16181;SDS011;8197;51.664;7.114;2024-03-06T20:04:47;76.00;;;29.90;;
16181;SDS011;8197;51.664;7.114;2024-03-06T20:09:51;76.47;;;31.33;;
16181;SDS011;8197;51.664;7.114;2024-03-06T20:14:54;75.83;;;30.50;;
16181;SDS011;8197;51.664;7.114;2024-03-06T20:19:57;71.10;;;31.53;;
16181;SDS011;8197;51.664;7.114;2024-03-06T20:25:01;79.70;;;30.70;;
16181;SDS011;8197;51.664;7.114;2024-03-06T20:30:06;81.00;;;28.27;;
16181;SDS011;8197;51.664;7.114;2024-03-06T20:35:10;75.73;;;30.37;;
16181;SDS011;8197;51.664;7.114;2024-03-06T20:40:15;84.83;;;32.57;;
16181;SDS011;8197;51.664;7.114;2024-03-06T20:45:18;81.80;;;30.67;;
16181;SDS011;8197;51.664;7.114;2024-03-06T20:50:21;80.40;;;33.67;;
16181;SDS011;8197;51.664;7.114;2024-03-06T20:55:25;95.93;;;34.23;;
16181;SDS011;8197;51.664;7.114;2024-03-06T21:00:29;77.73;;;32.63;;
16181;SDS011;8197;51.664;7.114;2024-03-06T21:05:32;81.30;;;33.43;;
16181;SDS011;8197;51.664;7.114;2024-03-06T21:10:39;98.43;;;35.03;;
16181;SDS011;8197;51.664;7.114;2024-03-06T21:15:42;83.97;;;31.53;;
16181;SDS011;8197;51.664;7.114;2024-03-06T21:20:45;85.47;;;35.27;;
16181;SDS011;8197;51.664;7.114;2024-03-06T21:25:50;85.40;;;33.63;;
16181;SDS011;8197;51.664;7.114;2024-03-06T21:30:53;83.17;;;32.77;;
16181;SDS011;8197;51.664;7.114;2024-03-06T21:35:56;92.33;;;34.77;;
16181;SDS011;8197;51.664;7.114;2024-03-06T21:41:00;84.53;;;33.90;;
16181;SDS011;8197;51.664;7.114;2024-03-06T21:46:04;92.67;;;34.67;;
16181;SDS011;8197;51.664;7.114;2024-03-06T21:51:07;86.27;;;35.67;;
16181;SDS011;8197;51.664;7.114;2024-03-06T21:56:12;93.50;;;34.30;;
16181;SDS011;8197;51.664;7.114;2024-03-06T22:01:15;77.73;;;33.07;;
16181;SDS011;8197;51.664;7.114;2024-03-06T22:06:18;95.50;;;39.20;;
16181;SDS011;8197;51.664;7.114;2024-03-06T22:11:22;96.80;;;38.60;;
16181;SDS011;8197;51.664;7.114;2024-03-06T22:16:25;98.67;;;38.13;;
16181;SDS011;8197;51.664;7.114;2024-03-06T22:21:28;86.07;;;36.90;;
16181;SDS011;8197;51.664;7.114;2024-03-06T22:26:32;109.83;;;40.60;;
16181;SDS011;8197;51.664;7.114;2024-03-06T22:31:35;92.70;;;39.17;;
16181;SDS011;8197;51.664;7.114;2024-03-06T22:36:38;98.43;;;37.00;;
16181;SDS011;8197;51.664;7.114;2024-03-06T22:41:43;86.80;;;36.60;;
16181;SDS011;8197;51.664;7.114;2024-03-06T22:46:46;93.03;;;38.20;;
16181;SDS011;8197;51.664;7.114;2024-03-06T22:51:58;90.47;;;37.20;;
16181;SDS011;8197;51.664;7.114;2024-03-06T22:57:02;88.87;;;36.83;;
16181;SDS011;8197;51.664;7.114;2024-03-06T23:02:05;88.37;;;36.47;;
16181;SDS011;8197;51.664;7.114;2024-03-06T23:07:09;90.10;;;37.30;;
16181;SDS011;8197;51.664;7.114;2024-03-06T23:12:13;94.10;;;39.67;;
16181;SDS011;8197;51.664;7.114;2024-03-06T23:17:18;90.57;;;36.23;;
16181;SDS011;8197;51.664;7.114;2024-03-06T23:22:21;95.43;;;37.97;;
16181;SDS011;8197;51.664;7.114;2024-03-06T23:27:25;91.90;;;34.47;;
16181;SDS011;8197;51.664;7.114;2024-03-06T23:32:28;91.57;;;36.80;;
16181;SDS011;8197;51.664;7.114;2024-03-06T23:37:31;92.37;;;40.20;;
16181;SDS011;8197;51.664;7.114;2024-03-06T23:42:36;97.37;;;38.43;;
16181;SDS011;8197;51.664;7.114;2024-03-06T23:47:39;103.90;;;40.80;;
16181;SDS011;8197;51.664;7.114;2024-03-06T23:52:45;99.93;;;40.20;;
16181;SDS011;8197;51.664;7.114;2024-03-06T23:57:49;102.30;;;40.37;;
